Time;durP1;ratioP1;P1;durP2;ratioP2;P2;SDS_P1;SDS_P2;PMS_P1;PMS_P2;Temp;Humidity;BMP_temperature;BMP_pressure;BME280_temperature;BME280_humidity;BME280_pressure;Samples;Min_cycle;Max_cycle;Signal;HPM_P1;HPM_P2
2022/03/27 00:00:13;;;;;;;11.93;7.15;;;19.60;51.40;;;;;;5034565;28;20254;-56
2022/03/27 00:02:40;;;;;;;12.15;6.50;;;19.60;51.30;;;;;;5034367;28;20024;-56
2022/03/27 00:05:07;;;;;;;12.18;7.03;;;19.60;51.40;;;;;;5036639;28;20136;-56
2022/03/27 00:07:33;;;;;;;12.65;7.43;;;19.60;51.40;;;;;;5039754;28;20104;-56
2022/03/27 00:09:58;;;;;;;11.07;6.78;;;19.60;51.50;;;;;;5055539;28;20121;-56
2022/03/27 00:12:24;;;;;;;11.80;6.88;;;19.60;51.50;;;;;;5036136;28;20132;-56
2022/03/27 00:14:50;;;;;;;10.55;6.78;;;19.60;51.50;;;;;;5033002;28;20120;-56
2022/03/27 00:17:15;;;;;;;10.90;6.75;;;19.50;51.40;;;;;;5040795;28;20036;-56
2022/03/27 00:19:41;;;;;;;11.52;6.65;;;19.60;51.50;;;;;;5042544;28;20048;-57
2022/03/27 00:22:07;;;;;;;10.93;6.70;;;19.50;51.60;;;;;;5037151;28;20374;-56
2022/03/27 00:24:32;;;;;;;13.80;6.80;;;19.50;51.50;;;;;;5035777;28;20397;-56
2022/03/27 00:26:58;;;;;;;12.20;6.60;;;19.50;51.40;;;;;;5039211;28;20025;-56
2022/03/27 00:29:23;;;;;;;10.43;6.43;;;19.50;51.40;;;;;;5045002;28;20029;-56
2022/03/27 00:31:49;;;;;;;11.88;6.63;;;19.50;51.50;;;;;;5038587;28;20024;-56
2022/03/27 00:34:15;;;;;;;12.50;7.28;;;19.50;51.50;;;;;;5040827;28;20074;-56
2022/03/27 00:36:40;;;;;;;9.88;6.63;;;19.50;51.50;;;;;;5038395;28;20442;-56
2022/03/27 00:39:06;;;;;;;10.95;6.40;;;19.50;51.60;;;;;;5042124;28;20143;-56
2022/03/27 00:41:32;;;;;;;11.60;6.53;;;19.50;51.50;;;;;;5049768;28;20036;-56
2022/03/27 00:43:57;;;;;;;11.13;6.82;;;19.40;51.50;;;;;;5034653;28;20108;-56
2022/03/27 00:46:23;;;;;;;11.68;7.10;;;19.40;51.50;;;;;;5044622;28;20029;-57
2022/03/27 00:48:49;;;;;;;13.40;6.90;;;19.40;51.50;;;;;;5041708;28;20037;-56
2022/03/27 00:51:14;;;;;;;11.60;7.15;;;19.40;51.50;;;;;;5038064;28;20033;-56
2022/03/27 00:53:40;;;;;;;12.43;7.03;;;19.40;51.50;;;;;;5030819;28;20068;-57
2022/03/27 00:56:05;;;;;;;10.65;6.47;;;19.40;51.60;;;;;;5033554;28;20379;-56
2022/03/27 00:58:31;;;;;;;12.45;7.18;;;19.40;51.60;;;;;;5037035;28;20398;-56
2022/03/27 01:01:24;;;;;;;11.40;7.35;;;19.40;51.60;;;;;;5035982;28;20736;-56
2022/03/27 01:03:53;;;;;;;11.75;7.50;;;19.40;51.70;;;;;;5039537;28;20025;-56
2022/03/27 01:06:40;;;;;;;12.63;6.75;;;19.40;51.60;;;;;;5035057;28;20033;-56
2022/03/27 01:11:51;;;;;;;;;;;19.30;51.70;;;;;;5032307;28;20420;-57
2022/03/27 01:14:31;;;;;;;12.70;6.88;;;19.30;51.60;;;;;;5038562;28;19909;-56
2022/03/27 01:17:10;;;;;;;12.27;7.32;;;19.30;51.70;;;;;;5042602;28;20102;-56
2022/03/27 01:19:46;;;;;;;11.27;6.72;;;19.30;51.70;;;;;;5042016;28;20021;-59
2022/03/27 01:22:12;;;;;;;13.10;6.93;;;19.30;51.70;;;;;;5038310;28;20036;-56
2022/03/27 01:24:38;;;;;;;11.18;6.35;;;19.30;51.70;;;;;;5035533;28;20033;-56
2022/03/27 01:27:04;;;;;;;12.00;7.03;;;19.30;51.90;;;;;;5033740;28;20504;-56
2022/03/27 01:29:29;;;;;;;11.25;6.68;;;19.30;51.70;;;;;;5059670;28;20036;-56
2022/03/27 01:31:56;;;;;;;10.20;6.30;;;19.20;51.70;;;;;;5041813;28;20032;-56
2022/03/27 01:34:21;;;;;;;11.88;7.13;;;19.20;51.80;;;;;;5036426;28;20119;-57
2022/03/27 01:36:47;;;;;;;12.35;6.80;;;19.20;51.60;;;;;;5036427;28;20128;-56
2022/03/27 01:39:14;;;;;;;14.23;7.18;;;19.20;51.80;;;;;;5037087;28;20052;-56
2022/03/27 01:41:40;;;;;;;12.65;6.80;;;19.20;51.70;;;;;;5038648;28;20037;-56
2022/03/27 01:44:11;;;;;;;13.02;6.85;;;19.20;51.80;;;;;;5040305;28;20112;-56
2022/03/27 01:46:38;;;;;;;12.13;7.15;;;19.20;51.60;;;;;;5038326;28;20057;-57
2022/03/27 01:49:08;;;;;;;12.00;6.60;;;19.20;51.60;;;;;;5043809;28;20412;-56
2022/03/27 01:51:33;;;;;;;10.77;6.80;;;19.20;51.80;;;;;;5036534;28;20100;-56
2022/03/27 01:54:01;;;;;;;12.43;7.22;;;19.20;51.80;;;;;;5037164;28;20053;-56
2022/03/27 01:56:26;;;;;;;11.88;6.57;;;19.10;51.70;;;;;;5039420;28;20040;-56
2022/03/27 01:58:52;;;;;;;9.98;6.25;;;19.10;52.00;;;;;;5035737;28;20113;-56
2022/03/27 02:01:19;;;;;;;11.05;6.55;;;19.10;51.90;;;;;;5038527;28;20037;-56
2022/03/27 02:03:45;;;;;;;12.18;6.57;;;19.10;51.90;;;;;;5038368;28;20074;-56
2022/03/27 02:06:12;;;;;;;12.10;6.88;;;19.10;51.80;;;;;;5046511;28;20032;-56
2022/03/27 02:08:37;;;;;;;9.88;6.13;;;19.10;51.80;;;;;;5036331;28;20502;-56
2022/03/27 02:11:03;;;;;;;11.98;6.82;;;19.10;52.00;;;;;;5041129;28;20063;-56
2022/03/27 02:13:29;;;;;;;11.70;6.07;;;19.10;51.90;;;;;;5038030;28;20029;-56
2022/03/27 02:15:57;;;;;;;12.00;7.15;;;19.10;52.00;;;;;;5040861;28;20099;-56
2022/03/27 02:18:27;;;;;;;12.77;7.47;;;19.10;51.90;;;;;;5037007;28;20440;-56
2022/03/27 02:20:54;;;;;;;10.35;6.38;;;19.10;52.00;;;;;;5042633;28;20041;-56
2022/03/27 02:23:22;;;;;;;11.07;6.35;;;19.10;52.10;;;;;;5048082;28;20020;-56
2022/03/27 02:25:48;;;;;;;11.52;6.50;;;19.10;52.10;;;;;;5038650;28;20025;-56
2022/03/27 02:28:14;;;;;;;10.77;6.45;;;19.00;52.10;;;;;;5063120;28;20555;-56
2022/03/27 02:30:41;;;;;;;11.25;5.78;;;19.00;52.10;;;;;;5044725;28;20117;-56
2022/03/27 02:33:06;;;;;;;13.25;7.25;;;19.00;52.10;;;;;;5040170;28;20056;-56
2022/03/27 02:35:32;;;;;;;12.02;6.97;;;19.00;52.10;;;;;;5038748;28;20446;-56
2022/03/27 02:37:58;;;;;;;10.43;6.80;;;19.00;52.10;;;;;;5042584;28;20057;-56
2022/03/27 02:40:24;;;;;;;12.68;7.60;;;19.00;52.00;;;;;;5044101;28;20041;-56
2022/03/27 02:42:49;;;;;;;10.85;6.53;;;19.00;52.00;;;;;;5040592;28;20036;-56
2022/03/27 02:45:15;;;;;;;12.32;7.47;;;19.00;52.20;;;;;;5035847;28;20033;-56
2022/03/27 02:47:41;;;;;;;10.80;6.47;;;19.00;52.00;;;;;;5039751;28;20031;-57
2022/03/27 02:50:07;;;;;;;10.38;6.38;;;19.00;52.20;;;;;;5047607;28;20037;-56
2022/03/27 02:52:33;;;;;;;12.75;6.97;;;18.90;52.30;;;;;;5042253;28;20025;-56
2022/03/27 02:54:59;;;;;;;9.38;5.40;;;18.90;52.00;;;;;;5042320;28;20031;-56
2022/03/27 02:57:25;;;;;;;14.70;7.95;;;18.90;52.30;;;;;;5042142;28;20090;-56
2022/03/27 02:59:53;;;;;;;11.55;6.97;;;18.90;52.10;;;;;;5047192;28;20116;-56
2022/03/27 03:02:20;;;;;;;10.55;5.97;;;18.90;52.20;;;;;;5038234;28;20044;-56
2022/03/27 03:04:45;;;;;;;10.10;5.47;;;18.90;52.30;;;;;;5039405;28;20047;-56
2022/03/27 03:07:11;;;;;;;12.02;6.60;;;18.90;52.40;;;;;;5037898;28;20035;-56
2022/03/27 03:09:37;;;;;;;10.05;5.63;;;18.90;52.30;;;;;;5039461;28;20032;-56
2022/03/27 03:12:04;;;;;;;13.32;6.80;;;18.90;52.50;;;;;;5040479;28;20036;-56
2022/03/27 03:14:29;;;;;;;10.95;5.80;;;18.90;52.20;;;;;;5034200;28;20026;-56
2022/03/27 03:16:55;;;;;;;11.70;6.28;;;18.90;52.50;;;;;;5036199;28;20426;-56
2022/03/27 03:19:21;;;;;;;12.55;6.40;;;18.90;52.40;;;;;;5041449;28;20041;-56
2022/03/27 03:21:47;;;;;;;10.10;5.60;;;18.80;52.30;;;;;;5039323;28;20144;-56
2022/03/27 03:24:13;;;;;;;10.93;5.85;;;18.80;52.50;;;;;;5040832;28;20070;-56
2022/03/27 03:26:38;;;;;;;11.45;5.93;;;18.80;52.40;;;;;;5039148;28;20462;-56
2022/03/27 03:29:04;;;;;;;10.65;5.60;;;18.80;52.60;;;;;;5038480;28;20522;-56
2022/03/27 03:31:30;;;;;;;9.23;5.88;;;18.80;52.50;;;;;;5035121;28;20049;-56
2022/03/27 03:33:55;;;;;;;10.85;6.28;;;18.80;52.60;;;;;;5041243;28;20481;-56
2022/03/27 03:36:21;;;;;;;11.50;6.03;;;18.80;52.50;;;;;;5044163;28;20152;-56
2022/03/27 03:38:47;;;;;;;10.05;5.82;;;18.80;52.50;;;;;;5034613;28;20094;-56
2022/03/27 03:41:12;;;;;;;12.18;5.93;;;18.80;52.60;;;;;;5046524;28;20511;-56
2022/03/27 03:43:38;;;;;;;10.23;5.10;;;18.80;52.60;;;;;;5042187;28;20018;-56
2022/03/27 03:46:04;;;;;;;9.02;5.13;;;18.80;52.60;;;;;;5039082;28;20028;-56
2022/03/27 03:48:31;;;;;;;10.50;5.45;;;18.70;52.60;;;;;;5042561;28;20021;-56
2022/03/27 03:50:57;;;;;;;10.98;5.65;;;18.70;52.60;;;;;;5042072;28;20111;-56
2022/03/27 03:53:22;;;;;;;9.38;5.82;;;18.80;52.60;;;;;;5044062;28;20208;-56
2022/03/27 03:55:48;;;;;;;9.57;5.38;;;18.70;52.60;;;;;;5043765;28;20025;-56
2022/03/27 03:58:14;;;;;;;9.65;4.90;;;18.70;52.60;;;;;;5042999;28;20036;-56
2022/03/27 04:00:41;;;;;;;8.80;5.10;;;18.70;52.70;;;;;;5036899;28;20041;-56
2022/03/27 04:03:07;;;;;;;9.48;5.30;;;18.70;52.60;;;;;;5036944;28;20029;-56
2022/03/27 04:05:34;;;;;;;10.98;5.30;;;18.70;52.80;;;;;;5034745;28;20033;-56
2022/03/27 04:08:00;;;;;;;9.77;5.45;;;18.70;52.80;;;;;;5039576;28;20021;-56
2022/03/27 04:10:25;;;;;;;9.30;5.40;;;18.70;52.80;;;;;;5039524;28;20037;-56
2022/03/27 04:12:51;;;;;;;8.68;5.05;;;18.70;52.70;;;;;;5042430;28;20400;-56
2022/03/27 04:15:17;;;;;;;9.50;5.32;;;18.70;52.70;;;;;;5040323;28;20037;-56
2022/03/27 04:17:44;;;;;;;11.25;5.90;;;18.70;52.80;;;;;;5043765;28;20025;-56
2022/03/27 04:20:10;;;;;;;11.02;5.68;;;18.70;52.70;;;;;;5036471;28;20059;-56
2022/03/27 04:22:36;;;;;;;10.85;5.53;;;18.60;52.70;;;;;;5040210;28;20025;-56
2022/03/27 04:25:02;;;;;;;9.13;4.88;;;18.70;52.80;;;;;;5042324;28;20108;-57
2022/03/27 04:27:28;;;;;;;9.23;5.15;;;18.60;52.80;;;;;;5036175;28;20072;-56
2022/03/27 04:29:53;;;;;;;11.35;5.57;;;18.60;52.80;;;;;;5040217;28;20064;-56
2022/03/27 04:32:19;;;;;;;9.57;5.00;;;18.60;52.80;;;;;;5039632;28;20061;-56
2022/03/27 04:34:45;;;;;;;8.82;5.60;;;18.60;52.70;;;;;;5036552;28;20029;-56
2022/03/27 04:37:10;;;;;;;10.13;5.40;;;18.60;52.80;;;;;;5037533;28;20469;-56
2022/03/27 04:39:36;;;;;;;8.63;4.95;;;18.60;52.80;;;;;;5038034;28;20079;-56
2022/03/27 04:42:02;;;;;;;9.90;4.95;;;18.60;52.80;;;;;;5055637;28;20055;-56
2022/03/27 04:44:27;;;;;;;9.88;4.95;;;18.60;52.80;;;;;;5045906;28;20033;-56
2022/03/27 04:46:54;;;;;;;10.05;5.05;;;18.60;53.90;;;;;;5040133;28;20041;-56
2022/03/27 04:49:20;;;;;;;8.98;4.90;;;18.60;52.80;;;;;;5042479;28;20036;-56
2022/03/27 04:51:45;;;;;;;8.40;4.85;;;18.50;52.80;;;;;;5038227;28;20424;-56
2022/03/27 04:54:11;;;;;;;9.02;5.15;;;18.50;52.90;;;;;;5038916;28;20545;-56
2022/03/27 04:56:37;;;;;;;9.43;5.18;;;18.50;52.80;;;;;;5033297;28;20033;-56
2022/03/27 04:59:03;;;;;;;11.23;5.03;;;18.60;52.90;;;;;;5044047;28;20435;-57
2022/03/27 05:01:28;;;;;;;9.13;5.15;;;18.50;52.80;;;;;;5035885;28;20051;-56
2022/03/27 05:03:54;;;;;;;8.57;5.00;;;18.50;52.80;;;;;;5041343;28;20060;-56
2022/03/27 05:06:20;;;;;;;9.70;4.85;;;18.50;52.90;;;;;;5033733;28;20053;-56
2022/03/27 05:08:45;;;;;;;9.70;4.90;;;18.50;52.90;;;;;;5034448;28;20045;-56
2022/03/27 05:11:11;;;;;;;9.48;5.03;;;18.50;53.00;;;;;;5034502;28;20057;-56
2022/03/27 05:13:37;;;;;;;9.65;5.03;;;18.50;52.90;;;;;;5040049;28;20104;-56
2022/03/27 05:16:03;;;;;;;11.32;5.05;;;18.40;52.80;;;;;;5035917;28;20033;-57
2022/03/27 05:18:28;;;;;;;8.90;4.80;;;18.50;52.90;;;;;;5036744;28;20104;-56
2022/03/27 05:20:54;;;;;;;8.07;4.70;;;18.50;52.90;;;;;;5035123;28;20508;-56
2022/03/27 05:23:19;;;;;;;9.45;5.00;;;18.40;52.90;;;;;;5040900;28;20076;-56
2022/03/27 05:25:48;;;;;;;9.98;4.70;;;18.40;53.00;;;;;;5042137;28;20536;-56
2022/03/27 05:28:14;;;;;;;9.95;5.03;;;18.40;52.90;;;;;;5036679;28;20397;-56
2022/03/27 05:30:40;;;;;;;10.00;5.30;;;18.50;52.90;;;;;;5035904;28;20044;-56
2022/03/27 05:33:05;;;;;;;8.80;5.15;;;18.40;52.90;;;;;;5036312;28;20480;-56
2022/03/27 05:35:31;;;;;;;8.70;4.85;;;18.50;53.00;;;;;;5040427;28;20060;-56
2022/03/27 05:37:58;;;;;;;8.73;5.00;;;18.40;52.90;;;;;;5037866;28;20045;-56
2022/03/27 05:40:24;;;;;;;8.50;4.90;;;18.40;53.00;;;;;;5044082;28;20048;-56
2022/03/27 05:42:50;;;;;;;9.93;4.97;;;18.40;53.10;;;;;;5039475;28;20029;-56
2022/03/27 05:45:16;;;;;;;8.90;4.80;;;18.40;53.00;;;;;;5045364;28;20033;-56
2022/03/27 05:47:42;;;;;;;9.10;5.18;;;18.40;53.00;;;;;;5046049;28;20060;-56
2022/03/27 05:50:08;;;;;;;9.85;4.93;;;18.40;53.00;;;;;;5047641;28;20120;-56
2022/03/27 05:52:34;;;;;;;8.52;4.80;;;18.40;53.00;;;;;;5044767;28;20489;-56
2022/03/27 05:55:00;;;;;;;8.80;4.72;;;18.40;53.00;;;;;;5041370;28;20025;-56
2022/03/27 05:57:25;;;;;;;9.00;5.05;;;18.40;53.00;;;;;;5043901;28;20383;-56
2022/03/27 05:59:51;;;;;;;10.57;5.32;;;18.30;53.10;;;;;;5036570;28;20715;-56
2022/03/27 06:02:16;;;;;;;10.25;4.65;;;18.40;53.00;;;;;;5042994;28;20524;-56
2022/03/27 06:04:42;;;;;;;8.18;4.65;;;18.30;53.00;;;;;;5036722;28;20040;-56
2022/03/27 06:07:09;;;;;;;8.90;4.93;;;18.30;52.90;;;;;;5040977;28;20029;-56
2022/03/27 06:09:34;;;;;;;9.38;4.45;;;18.30;53.10;;;;;;5040460;28;20032;-56
2022/03/27 06:12:00;;;;;;;8.70;4.65;;;18.30;53.00;;;;;;5038616;28;20401;-56
2022/03/27 06:14:27;;;;;;;8.90;4.78;;;18.30;53.10;;;;;;5042841;28;20030;-56
2022/03/27 06:16:52;;;;;;;9.25;4.78;;;18.30;53.10;;;;;;5037535;28;20044;-56
2022/03/27 06:19:18;;;;;;;8.23;4.50;;;18.30;53.10;;;;;;5044536;28;20080;-56
2022/03/27 06:21:44;;;;;;;8.43;5.03;;;18.30;53.00;;;;;;5046311;28;20540;-57
2022/03/27 06:24:13;;;;;;;9.73;5.40;;;18.30;53.00;;;;;;5039055;28;20076;-56
2022/03/27 06:26:40;;;;;;;10.68;5.72;;;18.30;53.10;;;;;;5042343;28;20040;-56
2022/03/27 06:29:05;;;;;;;8.68;4.63;;;18.20;52.90;;;;;;5044572;28;20497;-56
2022/03/27 06:31:31;;;;;;;9.00;4.90;;;18.30;53.00;;;;;;5044369;28;20031;-56
2022/03/27 06:33:57;;;;;;;8.70;5.18;;;18.20;53.00;;;;;;5044460;28;20449;-56
2022/03/27 06:36:24;;;;;;;7.78;4.65;;;18.20;54.00;;;;;;5037882;28;20038;-56
2022/03/27 06:38:49;;;;;;;9.50;4.88;;;18.20;53.10;;;;;;5036953;28;20068;-56
2022/03/27 06:41:15;;;;;;;9.35;5.20;;;18.20;53.10;;;;;;5044443;28;20528;-56
2022/03/27 06:43:41;;;;;;;9.68;4.97;;;18.20;53.10;;;;;;5038090;28;20072;-56
2022/03/27 06:46:07;;;;;;;8.93;4.90;;;18.20;53.00;;;;;;5039194;28;20421;-56
2022/03/27 06:48:33;;;;;;;9.85;4.80;;;18.20;53.10;;;;;;5042661;28;20116;-56
2022/03/27 06:50:59;;;;;;;8.23;4.90;;;18.20;53.10;;;;;;5046297;28;20035;-56
2022/03/27 06:53:25;;;;;;;7.47;4.60;;;18.20;53.10;;;;;;5040589;28;20029;-56
2022/03/27 06:55:54;;;;;;;8.63;4.43;;;18.20;53.10;;;;;;5042663;28;20040;-56
2022/03/27 06:58:19;;;;;;;9.43;4.90;;;18.20;53.10;;;;;;5039282;28;20065;-56
2022/03/27 07:03:29;;;;;;;7.80;4.50;;;18.20;53.10;;;;;;5041917;28;20043;-56
2022/03/27 07:05:56;;;;;;;9.15;4.68;;;18.20;53.00;;;;;;5042111;28;20482;-57
2022/03/27 07:08:21;;;;;;;9.63;4.90;;;18.20;53.10;;;;;;5046099;28;20033;-57
2022/03/27 07:10:49;;;;;;;9.02;4.90;;;18.20;53.20;;;;;;5046289;28;20199;-56
2022/03/27 07:13:16;;;;;;;9.18;4.60;;;18.20;53.10;;;;;;5039348;28;20025;-56
2022/03/27 07:15:43;;;;;;;8.75;4.90;;;18.20;53.00;;;;;;5041858;28;20742;-56
2022/03/27 07:18:09;;;;;;;8.40;4.88;;;18.10;53.00;;;;;;5041606;28;20032;-56
2022/03/27 07:20:36;;;;;;;10.40;4.88;;;18.20;53.10;;;;;;5041994;28;20072;-57
2022/03/27 07:23:06;;;;;;;8.43;4.80;;;18.10;53.40;;;;;;5042140;28;20489;-60
2022/03/27 07:25:35;;;;;;;9.02;4.47;;;18.10;52.80;;;;;;5039454;28;20493;-56
2022/03/27 07:28:03;;;;;;;9.68;5.25;;;18.10;52.90;;;;;;5038805;28;20029;-56
2022/03/27 07:30:30;;;;;;;8.98;4.95;;;18.10;53.00;;;;;;5036464;28;20048;-58
2022/03/27 07:32:55;;;;;;;9.48;5.05;;;18.10;52.90;;;;;;5032829;28;20505;-57
2022/03/27 07:35:25;;;;;;;13.98;5.78;;;18.10;52.90;;;;;;5040947;28;20037;-59
2022/03/27 07:37:52;;;;;;;17.85;5.53;;;18.10;52.90;;;;;;5043699;28;20056;-59
2022/03/27 07:40:18;;;;;;;11.38;5.05;;;18.20;52.90;;;;;;5043454;28;20033;-59
2022/03/27 07:42:47;;;;;;;10.95;4.63;;;18.10;53.00;;;;;;5038947;28;20088;-59
2022/03/27 07:45:13;;;;;;;12.35;5.30;;;18.10;53.00;;;;;;5032247;28;20115;-59
2022/03/27 07:47:39;;;;;;;10.10;5.88;;;18.20;52.80;;;;;;5046504;28;20040;-59
2022/03/27 07:50:06;;;;;;;10.02;5.60;;;18.10;52.80;;;;;;5033100;28;20025;-59
2022/03/27 07:52:32;;;;;;;10.95;6.30;;;18.10;52.90;;;;;;5056649;28;20490;-59
2022/03/27 07:54:58;;;;;;;12.10;6.90;;;18.10;53.00;;;;;;5035451;28;20025;-59
2022/03/27 07:57:23;;;;;;;13.27;6.80;;;18.20;53.00;;;;;;5035873;28;20033;-59
2022/03/27 07:59:49;;;;;;;14.43;6.80;;;18.20;53.10;;;;;;5042436;28;20098;-59
2022/03/27 08:02:16;;;;;;;13.15;7.47;;;18.20;53.10;;;;;;5044205;28;20032;-59
2022/03/27 08:04:42;;;;;;;13.32;7.30;;;18.20;53.40;;;;;;5017597;28;20060;-59
2022/03/27 08:07:08;;;;;;;14.77;7.60;;;18.20;53.50;;;;;;5040764;28;20614;-59
2022/03/27 08:09:35;;;;;;;15.65;7.18;;;18.20;54.10;;;;;;5038598;28;20080;-59
2022/03/27 08:12:00;;;;;;;16.23;8.55;;;18.20;53.80;;;;;;5033467;28;20026;-58
2022/03/27 08:14:31;;;;;;;15.18;8.52;;;18.20;53.70;;;;;;5040823;28;20037;-59
2022/03/27 08:17:00;;;;;;;18.10;8.85;;;18.20;53.70;;;;;;5040553;28;20024;-58
2022/03/27 08:19:26;;;;;;;19.20;8.98;;;18.20;53.50;;;;;;5038760;28;20025;-58
2022/03/27 08:21:53;;;;;;;12.30;7.88;;;18.20;53.70;;;;;;5036498;28;20041;-59
2022/03/27 08:24:20;;;;;;;18.90;8.80;;;18.20;53.50;;;;;;5039855;28;20055;-58
2022/03/27 08:27:02;;;;;;;18.23;8.63;;;18.20;53.70;;;;;;5040649;28;20109;-58
2022/03/27 08:29:32;;;;;;;20.92;8.98;;;18.30;54.10;;;;;;5036814;28;20021;-58
2022/03/27 08:32:01;;;;;;;18.42;8.30;;;18.30;54.20;;;;;;5037051;28;20029;-59
2022/03/27 08:34:28;;;;;;;17.35;8.27;;;18.30;54.20;;;;;;5039553;28;20035;-58
2022/03/27 08:36:54;;;;;;;16.05;8.30;;;18.30;54.10;;;;;;5037715;28;20409;-59
2022/03/27 08:39:20;;;;;;;15.20;8.02;;;18.30;54.10;;;;;;5040757;28;20041;-59
2022/03/27 08:41:47;;;;;;;14.18;7.72;;;18.30;54.10;;;;;;5037132;28;20109;-58
2022/03/27 08:44:15;;;;;;;13.90;8.07;;;18.30;54.20;;;;;;5041572;28;20037;-59
2022/03/27 08:46:42;;;;;;;16.55;7.93;;;18.30;54.30;;;;;;5043995;28;20464;-58
2022/03/27 08:49:41;;;;;;;19.88;7.93;;;18.30;54.30;;;;;;5037529;28;20112;-59
2022/03/27 08:52:10;;;;;;;13.23;7.32;;;18.40;54.90;;;;;;4962239;28;20043;-59
2022/03/27 08:54:42;;;;;;;12.82;7.15;;;18.40;54.30;;;;;;4959779;28;20407;-59
2022/03/27 08:57:26;;;;;;;15.70;7.60;;;18.40;54.40;;;;;;4963725;28;20078;-59
2022/03/27 08:59:55;;;;;;;16.75;7.70;;;18.40;54.30;;;;;;4962974;28;20124;-59
2022/03/27 09:02:23;;;;;;;11.82;7.25;;;18.40;54.30;;;;;;4964376;28;20043;-59
2022/03/27 09:04:55;;;;;;;14.02;7.38;;;18.30;54.20;;;;;;4947994;28;20155;-59
2022/03/27 09:07:33;;;;;;;15.18;7.75;;;18.40;54.20;;;;;;4962590;28;20411;-59
2022/03/27 09:09:59;;;;;;;14.90;7.65;;;18.40;54.70;;;;;;4963411;28;20030;-57
2022/03/27 09:12:24;;;;;;;15.90;7.72;;;18.40;55.30;;;;;;4965019;28;20030;-58
2022/03/27 09:14:50;;;;;;;14.80;7.68;;;18.40;55.50;;;;;;4961770;28;20074;-57
2022/03/27 09:17:16;;;;;;;17.27;8.45;;;18.40;55.80;;;;;;4962989;28;20165;-58
2022/03/27 09:19:46;;;;;;;15.93;8.25;;;18.40;55.70;;;;;;4957782;28;20447;-58
2022/03/27 09:22:18;;;;;;;16.48;8.23;;;18.50;55.60;;;;;;4957101;28;20089;-58
2022/03/27 09:24:47;;;;;;;14.75;8.00;;;18.50;56.60;;;;;;4959444;28;20031;-57
2022/03/27 09:27:13;;;;;;;16.00;8.35;;;18.50;55.60;;;;;;4982443;28;20041;-57
2022/03/27 09:30:08;;;;;;;16.90;8.70;;;18.40;55.50;;;;;;5039607;28;20067;-58
2022/03/27 09:32:36;;;;;;;15.50;8.48;;;18.50;55.50;;;;;;5039631;28;20029;-57
2022/03/27 09:35:08;;;;;;;15.77;8.27;;;18.50;55.50;;;;;;5040082;28;20025;-58
2022/03/27 09:37:39;;;;;;;16.38;8.43;;;18.50;55.40;;;;;;5040474;28;20441;-58
2022/03/27 09:40:09;;;;;;;17.23;8.38;;;18.50;55.40;;;;;;5036935;28;20061;-58
2022/03/27 09:42:37;;;;;;;17.95;8.00;;;18.50;55.40;;;;;;5037886;28;20021;-58
2022/03/27 09:45:19;;;;;;;14.43;8.13;;;18.60;55.50;;;;;;5037538;28;20025;-58
2022/03/27 09:47:48;;;;;;;15.70;8.25;;;18.60;55.40;;;;;;5037734;28;20516;-58
2022/03/27 09:50:53;;;;;;;15.30;7.70;;;18.60;55.30;;;;;;5037364;28;20025;-57
2022/03/27 09:53:29;;;;;;;14.50;7.47;;;18.60;55.20;;;;;;5002903;28;20445;-57
2022/03/27 09:56:01;;;;;;;12.85;7.50;;;18.60;55.10;;;;;;4995169;28;20049;-58
2022/03/27 09:58:36;;;;;;;15.00;7.90;;;18.60;55.10;;;;;;5001958;28;20133;-58
2022/03/27 10:01:14;;;;;;;14.57;8.23;;;18.60;55.00;;;;;;4999463;28;20037;-58
2022/03/27 10:04:04;;;;;;;14.82;7.75;;;18.60;54.80;;;;;;5000167;28;20095;-58
2022/03/27 10:06:32;;;;;;;18.20;9.43;;;18.60;54.80;;;;;;4997378;28;20041;-58
2022/03/27 10:09:01;;;;;;;20.48;11.38;;;18.60;55.50;;;;;;5000756;28;20030;-58
2022/03/27 10:11:27;;;;;;;23.63;13.70;;;18.60;54.50;;;;;;5000446;28;20467;-58
2022/03/27 10:13:54;;;;;;;26.38;14.82;;;18.60;54.50;;;;;;5000231;28;20046;-57
2022/03/27 10:16:42;;;;;;;25.15;15.27;;;18.60;54.70;;;;;;4999918;28;20033;-58
2022/03/27 10:19:49;;;;;;;28.05;15.63;;;18.60;54.80;;;;;;4983421;28;20093;-58
2022/03/27 10:22:20;;;;;;;29.67;16.08;;;18.70;55.60;;;;;;4962659;28;20062;-58
2022/03/27 10:24:46;;;;;;;29.52;16.80;;;18.70;54.40;;;;;;4949166;28;20086;-57
2022/03/27 10:27:12;;;;;;;25.85;15.45;;;18.70;54.30;;;;;;4945760;28;20049;-57
2022/03/27 10:29:37;;;;;;;26.27;15.80;;;18.80;54.30;;;;;;4946337;28;20110;-57
2022/03/27 10:32:04;;;;;;;27.75;16.20;;;18.80;54.30;;;;;;4949980;28;20114;-58
2022/03/27 10:34:30;;;;;;;22.92;15.48;;;18.80;54.20;;;;;;4948100;28;20041;-58
2022/03/27 10:37:09;;;;;;;25.15;14.68;;;18.90;54.10;;;;;;4945799;28;20444;-58
2022/03/27 10:39:48;;;;;;;24.45;15.05;;;18.90;54.10;;;;;;4947212;28;20035;-58
2022/03/27 10:42:27;;;;;;;31.48;17.67;;;18.90;54.00;;;;;;4959402;28;20130;-58
2022/03/27 10:45:16;;;;;;;27.23;17.33;;;18.80;53.80;;;;;;4947512;28;20086;-58
2022/03/27 10:47:42;;;;;;;28.77;18.73;;;18.80;53.70;;;;;;4961853;28;20081;-58
2022/03/27 10:50:08;;;;;;;30.35;20.33;;;18.80;53.70;;;;;;4967022;28;20570;-58
2022/03/27 10:52:36;;;;;;;36.05;20.63;;;18.80;53.70;;;;;;4991344;28;20109;-58
2022/03/27 10:55:07;;;;;;;35.05;20.33;;;18.90;55.50;;;;;;5044790;28;20033;-60
2022/03/27 10:57:35;;;;;;;35.15;22.35;;;18.90;55.80;;;;;;5040273;28;20057;-59
2022/03/27 11:00:01;;;;;;;36.63;22.30;;;18.90;54.90;;;;;;5036596;28;20447;-59
2022/03/27 11:02:49;;;;;;;37.88;25.55;;;19.00;54.70;;;;;;5043215;28;20241;-59
2022/03/27 11:05:36;;;;;;;41.88;24.98;;;19.10;54.80;;;;;;5043120;28;20565;-59
2022/03/27 11:08:17;;;;;;;38.38;25.63;;;19.10;54.80;;;;;;5041642;28;20039;-59
2022/03/27 11:10:49;;;;;;;39.78;26.77;;;19.20;54.70;;;;;;5037849;28;20042;-59
2022/03/27 11:13:30;;;;;;;43.92;26.75;;;19.30;55.10;;;;;;5039967;28;20473;-59
2022/03/27 11:16:15;;;;;;;43.78;27.15;;;19.40;55.60;;;;;;5037051;28;20532;-58
2022/03/27 11:18:50;;;;;;;43.50;28.80;;;19.30;55.70;;;;;;5038582;28;20020;-58
2022/03/27 11:21:27;;;;;;;45.83;29.42;;;19.50;56.30;;;;;;5039244;28;20069;-58
2022/03/27 11:24:19;;;;;;;43.85;29.08;;;19.60;55.70;;;;;;5036957;28;20098;-58
2022/03/27 11:26:45;;;;;;;46.38;29.33;;;19.60;55.30;;;;;;5038073;28;20891;-58
2022/03/27 11:29:11;;;;;;;42.95;28.08;;;19.60;55.00;;;;;;5043915;28;20090;-58
2022/03/27 11:31:37;;;;;;;44.65;28.73;;;19.70;54.70;;;;;;5042195;28;20036;-58
2022/03/27 11:34:11;;;;;;;47.65;29.00;;;19.70;54.20;;;;;;5037576;28;20029;-57
2022/03/27 11:36:38;;;;;;;45.00;28.40;;;19.70;54.20;;;;;;5037344;28;20041;-58
2022/03/27 11:39:08;;;;;;;44.10;26.90;;;19.70;53.90;;;;;;5043044;28;20060;-58
2022/03/27 11:41:44;;;;;;;47.05;29.63;;;19.80;53.60;;;;;;5043266;28;20080;-59
2022/03/27 11:47:16;;;;;;;40.95;27.42;;;19.80;53.10;;;;;;5036513;28;20140;-59
2022/03/27 11:49:42;;;;;;;41.00;26.80;;;19.80;52.90;;;;;;5038096;28;20029;-60
2022/03/27 11:52:19;;;;;;;40.97;26.40;;;19.80;52.50;;;;;;5038160;28;20485;-59
2022/03/27 11:54:46;;;;;;;40.30;26.75;;;19.90;52.20;;;;;;5040102;28;20033;-59
2022/03/27 11:57:13;;;;;;;38.42;25.75;;;19.90;52.00;;;;;;5042540;28;20112;-59
2022/03/27 11:59:47;;;;;;;42.88;26.67;;;19.90;52.00;;;;;;5037721;28;20037;-59
2022/03/27 12:02:13;;;;;;;40.03;24.73;;;19.90;51.70;;;;;;5035618;28;20030;-59
2022/03/27 12:04:57;;;;;;;40.00;24.45;;;19.90;51.80;;;;;;5040820;28;20039;-59
2022/03/27 12:07:24;;;;;;;37.55;24.90;;;20.00;51.60;;;;;;5039035;28;20041;-59
2022/03/27 12:10:00;;;;;;;38.90;24.42;;;19.90;51.30;;;;;;5040469;28;20032;-59
2022/03/27 12:12:27;;;;;;;37.13;24.95;;;20.00;51.10;;;;;;5039784;28;20115;-59
2022/03/27 12:15:08;;;;;;;39.42;24.40;;;20.00;50.50;;;;;;5039857;28;20023;-59
2022/03/27 12:17:45;;;;;;;36.63;23.70;;;20.00;50.40;;;;;;5041554;28;20033;-59
2022/03/27 12:20:11;;;;;;;37.63;23.67;;;20.00;50.30;;;;;;5043380;28;20067;-59
2022/03/27 12:22:41;;;;;;;35.88;23.40;;;20.00;50.30;;;;;;5040788;28;20147;-59
2022/03/27 12:25:19;;;;;;;36.15;23.55;;;20.10;49.80;;;;;;5041401;28;20033;-59
2022/03/27 12:30:36;;;;;;;32.13;21.77;;;20.20;49.60;;;;;;5040573;28;20039;-59
2022/03/27 12:33:02;;;;;;;36.88;22.30;;;20.20;49.60;;;;;;5040557;28;20017;-59
2022/03/27 12:35:29;;;;;;;37.00;22.15;;;20.20;49.70;;;;;;5044705;28;20539;-59
2022/03/27 12:37:55;;;;;;;32.15;21.08;;;20.20;49.10;;;;;;5032974;28;20048;-59
2022/03/27 12:40:21;;;;;;;39.13;22.17;;;20.20;50.10;;;;;;5039279;28;20047;-59
2022/03/27 12:42:48;;;;;;;33.58;21.55;;;20.30;48.80;;;;;;5033206;28;20404;-60
2022/03/27 12:45:17;;;;;;;36.40;20.98;;;20.30;48.70;;;;;;5039449;28;20036;-61
2022/03/27 12:47:58;;;;;;;33.65;20.35;;;20.40;48.50;;;;;;5032355;28;20448;-60
2022/03/27 12:50:31;;;;;;;30.65;20.63;;;20.40;48.00;;;;;;5035022;28;20025;-61
2022/03/27 12:53:13;;;;;;;31.27;19.77;;;20.50;48.20;;;;;;5040826;28;20033;-61
2022/03/27 12:56:11;;;;;;;30.38;19.85;;;20.50;48.00;;;;;;5041062;28;20025;-61